createdAt,value
2022-11-27T00:01:37.746Z,101500.38
2022-11-27T00:04:06.603Z,101477.81
2022-11-27T00:06:38.928Z,101475.97
2022-11-27T00:09:09.784Z,101477.41
2022-11-27T00:11:39.411Z,101465.41
2022-11-27T00:14:09.885Z,101473.94
2022-11-27T00:16:37.756Z,101454.03
2022-11-27T00:19:06.291Z,101427.66
2022-11-27T00:21:38.381Z,101417.44
2022-11-27T00:24:08.837Z,101431.88
2022-11-27T00:26:38.320Z,101442.59
2022-11-27T00:29:06.490Z,101411.94
2022-11-27T00:31:38.365Z,101409.88
2022-11-27T00:34:08.627Z,101402.75
2022-11-27T00:36:37.557Z,101369.25
2022-11-27T00:39:06.148Z,101357.38
2022-11-27T00:41:34.127Z,101366.34
2022-11-27T00:44:02.563Z,101348.91
2022-11-27T00:46:32.700Z,101388.91
2022-11-27T00:49:04.131Z,101388.91
2022-11-27T00:51:32.398Z,101386.78
2022-11-27T00:54:00.981Z,101379.41
2022-11-27T00:56:30.438Z,101365.28
2022-11-27T00:58:58.818Z,101365.41
2022-11-27T01:01:29.801Z,101385.31
2022-11-27T01:03:58.678Z,101380.22
2022-11-27T01:06:29.887Z,101373.75
2022-11-27T01:09:00.317Z,101380.84
2022-11-27T01:11:31.009Z,101312.44
2022-11-27T01:14:00.637Z,101352.72
2022-11-27T01:16:31.132Z,101334.44
2022-11-27T01:19:01.198Z,101340.84
2022-11-27T01:21:33.440Z,101366.81
2022-11-27T01:24:02.069Z,101333.00
2022-11-27T01:26:30.393Z,101343.69
2022-11-27T01:28:59.757Z,101355.03
2022-11-27T01:31:31.450Z,101360.22
2022-11-27T01:34:02.120Z,101360.72
2022-11-27T01:36:33.126Z,101316.66
2022-11-27T01:39:01.810Z,101330.28
2022-11-27T01:41:36.174Z,101338.69
2022-11-27T01:44:25.145Z,101312.16
2022-11-27T01:46:56.857Z,101326.66
2022-11-27T01:49:31.827Z,101298.59
2022-11-27T01:52:04.649Z,101325.59
2022-11-27T01:54:36.370Z,101304.81
2022-11-27T01:57:09.796Z,101311.41
2022-11-27T01:59:37.858Z,101310.69
2022-11-27T02:02:06.355Z,101300.34
2022-11-27T02:04:34.798Z,101291.94
2022-11-27T02:07:04.247Z,101245.41
2022-11-27T02:09:33.320Z,101253.75
2022-11-27T02:12:17.155Z,101288.06
2022-11-27T02:14:51.385Z,101256.16
2022-11-27T02:17:23.623Z,101234.25
2022-11-27T02:20:12.612Z,101264.53
2022-11-27T02:23:06.995Z,101246.69
2022-11-27T02:25:53.314Z,101278.59
2022-11-27T02:28:39.788Z,101218.41
2022-11-27T02:31:16.151Z,101224.31
2022-11-27T02:33:51.499Z,101262.75
2022-11-27T02:36:24.561Z,101269.22
2022-11-27T02:38:59.059Z,101232.38
2022-11-27T02:41:31.053Z,101252.88
2022-11-27T02:44:01.495Z,101259.81
2022-11-27T02:46:31.822Z,101258.84
2022-11-27T02:49:04.806Z,101255.53
2022-11-27T02:51:40.036Z,101221.78
2022-11-27T02:54:12.327Z,101233.59
2022-11-27T02:56:43.958Z,101251.56
2022-11-27T02:59:15.156Z,101263.84
2022-11-27T03:01:47.717Z,101245.41
2022-11-27T03:04:21.801Z,101241.28
2022-11-27T03:06:55.695Z,101255.25
2022-11-27T03:09:27.257Z,101264.28
2022-11-27T03:11:56.262Z,101264.66
2022-11-27T03:14:24.963Z,101252.03
2022-11-27T03:17:03.815Z,101267.69
2022-11-27T03:19:40.365Z,101252.47
2022-11-27T03:22:08.983Z,101259.38
2022-11-27T03:24:37.612Z,101263.59
2022-11-27T03:27:07.142Z,101276.09
2022-11-27T03:29:38.282Z,101281.03
2022-11-27T03:32:08.793Z,101252.09
2022-11-27T03:34:37.820Z,101214.25
2022-11-27T03:37:06.457Z,101247.75
2022-11-27T03:39:35.664Z,101262.84
2022-11-27T03:42:15.684Z,101238.38
2022-11-27T03:44:48.105Z,101229.88
2022-11-27T03:47:34.317Z,101252.88
2022-11-27T03:50:19.447Z,101216.72
2022-11-27T03:52:57.522Z,101267.44
2022-11-27T03:55:33.194Z,101281.63
2022-11-27T03:58:04.939Z,101239.53
2022-11-27T04:00:37.382Z,101221.28
2022-11-27T04:03:10.028Z,101232.34
2022-11-27T04:05:38.311Z,101239.72
2022-11-27T04:08:07.305Z,101287.06
2022-11-27T04:10:37.195Z,101267.44
2022-11-27T04:13:05.904Z,101263.84
2022-11-27T04:15:33.732Z,101255.97
2022-11-27T04:18:02.033Z,101264.75
2022-11-27T04:20:31.418Z,101168.81
2022-11-27T04:22:59.765Z,101226.81
2022-11-27T04:25:27.975Z,101244.63
2022-11-27T04:27:56.911Z,101245.25
2022-11-27T04:30:24.760Z,101208.31
2022-11-27T04:32:52.592Z,101223.34
2022-11-27T04:35:20.842Z,101236.31
2022-11-27T04:37:50.163Z,101241.44
2022-11-27T04:40:18.811Z,101231.50
2022-11-27T04:42:46.727Z,101235.78
2022-11-27T04:45:17.883Z,101219.00
2022-11-27T04:47:46.156Z,101240.25
2022-11-27T04:50:14.322Z,101237.59
2022-11-27T04:52:42.601Z,101232.41
2022-11-27T04:55:12.171Z,101226.47
2022-11-27T04:57:40.671Z,101251.00
2022-11-27T05:00:09.982Z,101243.25
2022-11-27T05:02:37.870Z,101228.75
2022-11-27T05:05:06.795Z,101225.84
2022-11-27T05:07:34.720Z,101233.66
2022-11-27T05:10:03.252Z,101213.16
2022-11-27T05:12:32.715Z,101230.22
2022-11-27T05:15:04.244Z,101206.88
2022-11-27T05:17:33.148Z,101216.84
2022-11-27T05:20:01.019Z,101189.56
2022-11-27T05:22:29.649Z,101185.25
2022-11-27T05:24:57.498Z,101181.06
2022-11-27T05:27:25.901Z,101195.56
2022-11-27T05:29:55.185Z,101192.41
2022-11-27T05:32:23.422Z,101168.69
2022-11-27T05:34:51.313Z,101173.34
2022-11-27T05:37:20.221Z,101193.75
2022-11-27T05:39:50.311Z,101162.97
2022-11-27T05:42:18.592Z,101159.84
2022-11-27T05:44:46.683Z,101164.06
2022-11-27T05:47:16.545Z,101158.41
2022-11-27T05:49:44.463Z,101124.59
2022-11-27T05:52:12.294Z,101135.72
2022-11-27T05:54:43.430Z,101120.28
2022-11-27T05:57:11.579Z,101142.28
2022-11-27T05:59:39.930Z,101102.72
2022-11-27T06:02:07.907Z,101111.75
2022-11-27T06:04:37.884Z,101122.59
2022-11-27T06:07:05.842Z,101141.00
2022-11-27T06:09:35.588Z,101102.38
2022-11-27T06:12:03.839Z,101090.25
2022-11-27T06:14:32.380Z,101109.44
2022-11-27T06:17:00.812Z,101112.38
2022-11-27T06:19:29.016Z,101095.63
2022-11-27T06:21:58.677Z,101086.69
2022-11-27T06:24:26.822Z,101094.88
2022-11-27T06:26:54.642Z,101105.56
2022-11-27T06:29:22.877Z,101072.38
2022-11-27T06:31:51.395Z,101109.31
2022-11-27T06:34:19.401Z,101111.94
2022-11-27T06:36:47.961Z,101085.50
2022-11-27T06:39:17.339Z,101062.19
2022-11-27T06:41:45.657Z,101092.50
2022-11-27T06:44:13.557Z,101089.06
2022-11-27T06:46:42.017Z,101097.72
2022-11-27T06:49:10.870Z,101067.84
2022-11-27T06:51:39.288Z,101088.50
2022-11-27T06:54:07.329Z,101063.19
2022-11-27T06:56:37.728Z,101061.53
2022-11-27T06:59:05.558Z,101083.69
2022-11-27T07:01:34.978Z,101072.94
2022-11-27T07:04:03.002Z,101070.03
2022-11-27T07:06:30.974Z,101043.97
2022-11-27T07:08:59.442Z,101071.03
2022-11-27T07:11:29.869Z,101055.09
2022-11-27T07:14:01.449Z,101046.53
2022-11-27T07:16:31.623Z,101071.50
2022-11-27T07:19:02.582Z,101078.22
2022-11-27T07:21:32.730Z,101083.88
2022-11-27T07:24:01.747Z,101081.06
2022-11-27T07:26:31.429Z,101062.81
2022-11-27T07:29:01.498Z,101079.03
2022-11-27T07:31:30.976Z,101080.03
2022-11-27T07:34:00.386Z,101072.94
2022-11-27T07:36:31.458Z,101071.94
2022-11-27T07:38:59.440Z,101046.97
2022-11-27T07:41:33.392Z,101061.34
2022-11-27T07:44:04.373Z,101057.00
2022-11-27T07:46:32.204Z,101059.63
2022-11-27T07:49:01.852Z,101052.81
2022-11-27T07:51:30.025Z,101065.53
2022-11-27T07:53:58.576Z,101064.91
2022-11-27T07:56:27.826Z,101050.44
2022-11-27T07:58:55.557Z,101051.50
2022-11-27T08:01:26.062Z,101044.13
2022-11-27T08:03:54.577Z,101053.81
2022-11-27T08:06:24.252Z,101039.41
2022-11-27T08:08:53.117Z,101033.75
2022-11-27T08:11:23.646Z,101035.66
2022-11-27T08:13:52.118Z,101037.13
2022-11-27T08:16:22.397Z,101024.00
2022-11-27T08:18:53.349Z,101012.16
2022-11-27T08:21:21.717Z,101019.09
2022-11-27T08:23:49.538Z,101034.66
2022-11-27T08:26:17.779Z,101023.00
2022-11-27T08:28:46.237Z,101024.53
2022-11-27T08:31:16.122Z,101025.28
2022-11-27T08:33:44.088Z,101036.13
2022-11-27T08:36:18.094Z,101018.78
2022-11-27T08:38:46.430Z,101027.19
2022-11-27T08:41:14.595Z,101022.53
2022-11-27T08:43:42.396Z,101020.69
2022-11-27T08:46:10.859Z,101020.63
2022-11-27T08:48:39.198Z,101015.59
2022-11-27T08:51:08.265Z,101015.59
2022-11-27T08:53:38.809Z,100969.00
2022-11-27T08:56:07.784Z,100996.78
2022-11-27T08:58:36.084Z,101009.84
2022-11-27T09:01:09.884Z,101000.31
2022-11-27T09:03:38.352Z,101006.66
2022-11-27T09:06:08.555Z,100987.38
2022-11-27T09:08:37.843Z,101000.84
2022-11-27T09:11:06.197Z,101009.50
2022-11-27T09:13:36.787Z,100986.00
2022-11-27T09:16:05.641Z,100998.03
2022-11-27T09:18:33.492Z,101017.88
2022-11-27T09:21:05.022Z,101005.84
2022-11-27T09:23:33.928Z,100996.84
2022-11-27T09:26:05.513Z,100998.72
2022-11-27T09:28:34.818Z,100956.81
2022-11-27T09:31:07.393Z,100981.91
2022-11-27T09:33:39.298Z,100988.41
2022-11-27T09:36:09.784Z,100982.31
2022-11-27T09:38:38.869Z,100985.78
2022-11-27T09:41:36.559Z,100971.75
2022-11-27T09:44:13.389Z,100983.97
2022-11-27T09:46:43.612Z,100978.88
2022-11-27T09:49:19.561Z,100978.03
2022-11-27T09:51:54.585Z,100957.47
2022-11-27T09:54:26.249Z,100943.78
2022-11-27T09:56:59.325Z,100960.56
2022-11-27T09:59:35.264Z,100939.72
2022-11-27T10:02:03.201Z,100944.53
2022-11-27T10:04:50.948Z,100939.91
2022-11-27T10:07:30.825Z,100940.59
2022-11-27T10:10:17.547Z,100935.97
2022-11-27T10:13:00.560Z,100924.31
2022-11-27T10:15:38.819Z,100900.19
2022-11-27T10:18:14.103Z,100888.75
2022-11-27T10:20:47.665Z,100922.75
2022-11-27T10:23:25.477Z,100923.38
2022-11-27T10:25:59.172Z,100929.28
2022-11-27T10:28:37.899Z,100924.63
2022-11-27T10:31:13.777Z,100905.13
2022-11-27T10:33:45.959Z,100899.81
2022-11-27T10:36:16.879Z,100911.88
2022-11-27T10:38:45.370Z,100903.13
2022-11-27T10:41:48.723Z,100906.38
2022-11-27T10:44:24.046Z,100889.44
2022-11-27T10:46:54.580Z,100889.66
2022-11-27T10:49:22.422Z,100880.25
2022-11-27T10:51:50.127Z,100900.72
2022-11-27T10:54:24.547Z,100892.41
2022-11-27T10:57:09.521Z,100877.91
2022-11-27T10:59:44.684Z,100853.97
2022-11-27T11:02:28.520Z,100868.69
2022-11-27T11:05:23.986Z,100843.31
2022-11-27T11:07:44.659Z,100854.06
2022-11-27T11:10:27.239Z,100858.16
2022-11-27T11:13:16.736Z,100857.75
2022-11-27T11:15:56.004Z,100857.75
2022-11-27T11:18:26.370Z,100806.38
2022-11-27T11:20:57.827Z,100842.53
2022-11-27T11:23:32.404Z,100828.94
2022-11-27T11:26:08.684Z,100815.06
2022-11-27T11:28:47.637Z,100783.00
2022-11-27T11:31:20.587Z,100813.09
2022-11-27T11:33:52.346Z,100813.47
2022-11-27T11:36:20.603Z,100816.00
2022-11-27T11:38:49.472Z,100807.84
2022-11-27T11:41:19.071Z,100803.81
2022-11-27T11:43:58.883Z,100796.09
2022-11-27T11:46:32.189Z,100801.03
2022-11-27T11:49:04.158Z,100799.78
2022-11-27T11:51:56.827Z,100804.28
2022-11-27T11:54:40.603Z,100795.31
2022-11-27T11:57:33.554Z,100802.69
2022-11-27T12:00:07.816Z,100808.78
2022-11-27T12:02:56.783Z,100807.75
2022-11-27T12:05:30.983Z,100797.81
2022-11-27T12:08:25.919Z,100785.19
2022-11-27T12:11:03.594Z,100783.34
2022-11-27T12:14:04.946Z,100793.38
2022-11-27T12:16:43.174Z,100780.31
2022-11-27T12:19:32.026Z,100763.56
2022-11-27T12:22:12.487Z,100753.44
2022-11-27T12:24:51.380Z,100746.06
2022-11-27T12:27:32.998Z,100762.22
2022-11-27T12:30:10.406Z,100752.47
2022-11-27T12:33:04.232Z,100710.06
2022-11-27T12:35:40.034Z,100723.72
2022-11-27T12:38:29.656Z,100722.97
2022-11-27T12:41:13.782Z,100722.16
2022-11-27T12:43:45.487Z,100728.25
2022-11-27T12:46:17.173Z,100718.06
2022-11-27T12:48:51.387Z,100716.44
2022-11-27T12:51:26.834Z,100719.72
2022-11-27T12:54:01.859Z,100717.69
2022-11-27T12:56:33.144Z,100670.97
2022-11-27T12:59:11.769Z,100651.19
2022-11-27T13:01:44.504Z,100693.25
2022-11-27T13:04:20.595Z,100693.25
2022-11-27T13:06:56.762Z,100676.91
2022-11-27T13:09:34.229Z,100656.94
2022-11-27T13:12:03.467Z,100670.38
2022-11-27T13:14:37.371Z,100684.25
2022-11-27T13:17:08.115Z,100683.66
2022-11-27T13:19:41.353Z,100683.66
2022-11-27T13:22:15.369Z,100674.66
2022-11-27T13:24:44.182Z,100683.06
2022-11-27T13:27:17.105Z,100657.38
2022-11-27T13:29:50.111Z,100670.81
2022-11-27T13:32:24.397Z,100662.69
2022-11-27T13:34:53.768Z,100667.19
2022-11-27T13:37:31.336Z,100660.69
2022-11-27T13:40:07.149Z,100647.63
2022-11-27T13:42:37.585Z,100656.22
2022-11-27T13:45:11.266Z,100647.25
2022-11-27T13:47:44.306Z,100653.97
2022-11-27T13:50:15.240Z,100628.47
2022-11-27T13:52:57.384Z,100636.28
2022-11-27T13:55:28.939Z,100632.22
2022-11-27T13:57:59.440Z,100629.16
2022-11-27T14:00:37.772Z,100605.34
2022-11-27T14:03:09.685Z,100617.97
2022-11-27T14:05:41.569Z,100621.84
2022-11-27T14:08:23.384Z,100593.94
2022-11-27T14:10:59.101Z,100602.28
2022-11-27T14:13:38.846Z,100592.72
2022-11-27T14:16:21.403Z,100587.44
2022-11-27T14:18:52.725Z,100565.44
2022-11-27T14:21:27.458Z,100592.13
2022-11-27T14:23:56.658Z,100545.84
2022-11-27T14:26:25.926Z,100577.84
2022-11-27T14:28:56.524Z,100582.53
2022-11-27T14:31:30.234Z,100579.28
2022-11-27T14:34:14.803Z,100556.06
2022-11-27T14:36:43.909Z,100572.38
2022-11-27T14:39:23.924Z,100574.00
2022-11-27T14:41:58.700Z,100566.06
2022-11-27T14:44:26.986Z,100539.78
2022-11-27T14:46:55.770Z,100552.19
2022-11-27T14:49:29.039Z,100548.94
2022-11-27T14:52:01.075Z,100538.53
2022-11-27T14:54:34.207Z,100540.41
2022-11-27T14:57:02.397Z,100541.00
2022-11-27T14:59:30.378Z,100531.22
2022-11-27T15:02:03.621Z,100547.09
2022-11-27T15:04:35.959Z,100509.66
2022-11-27T15:07:06.920Z,100528.59
2022-11-27T15:09:37.397Z,100523.28
2022-11-27T15:12:16.382Z,100509.06
2022-11-27T15:14:47.899Z,100515.34
2022-11-27T15:17:19.270Z,100509.63
2022-11-27T15:19:47.886Z,100512.91
2022-11-27T15:22:18.197Z,100473.00
2022-11-27T15:24:47.476Z,100471.97
2022-11-27T15:27:21.110Z,100496.81
2022-11-27T15:30:13.759Z,100490.50
2022-11-27T15:32:51.360Z,100484.41
2022-11-27T15:35:25.703Z,100479.09
2022-11-27T15:37:55.816Z,100445.53
2022-11-27T15:40:32.249Z,100444.53
2022-11-27T15:43:00.655Z,100472.59
2022-11-27T15:45:31.193Z,100465.06
2022-11-27T15:48:01.125Z,100428.22
2022-11-27T15:50:30.289Z,100472.81
2022-11-27T15:53:01.297Z,100463.03
2022-11-27T15:55:30.786Z,100442.47
2022-11-27T15:57:58.817Z,100434.72
2022-11-27T16:00:27.086Z,100432.69
2022-11-27T16:02:55.311Z,100441.47
2022-11-27T16:05:23.780Z,100423.94
2022-11-27T16:07:55.191Z,100449.00
2022-11-27T16:10:24.034Z,100438.41
2022-11-27T16:12:55.450Z,100433.94
2022-11-27T16:15:25.762Z,100409.09
2022-11-27T16:17:56.627Z,100432.09
2022-11-27T16:20:25.053Z,100398.72
2022-11-27T16:22:53.297Z,100428.03
2022-11-27T16:25:21.345Z,100428.84
2022-11-27T16:27:49.661Z,100403.19
2022-11-27T16:30:20.080Z,100395.25
2022-11-27T16:32:48.298Z,100394.66
2022-11-27T16:35:16.222Z,100365.13
2022-11-27T16:37:44.452Z,100390.16
2022-11-27T16:40:13.566Z,100346.84
2022-11-27T16:42:41.842Z,100372.44
2022-11-27T16:45:10.448Z,100374.47
2022-11-27T16:47:39.874Z,100360.44
2022-11-27T16:50:09.891Z,100319.00
2022-11-27T16:52:40.731Z,100350.47
2022-11-27T16:55:10.208Z,100377.34
2022-11-27T16:57:38.095Z,100349.06
2022-11-27T17:00:07.843Z,100351.31
2022-11-27T17:02:35.976Z,100334.22
2022-11-27T17:05:06.283Z,100354.53
2022-11-27T17:07:34.157Z,100329.75
2022-11-27T17:10:03.086Z,100350.06
2022-11-27T17:12:30.942Z,100339.28
2022-11-27T17:14:58.730Z,100335.00
2022-11-27T17:17:27.221Z,100323.22
2022-11-27T17:20:00.455Z,100343.13
2022-11-27T17:22:32.603Z,100326.06
2022-11-27T17:25:00.583Z,100306.94
2022-11-27T17:27:28.800Z,100291.72
2022-11-27T17:29:56.621Z,100315.28
2022-11-27T17:32:25.241Z,100292.31
2022-11-27T17:34:56.321Z,100283.38
2022-11-27T17:37:24.478Z,100292.72
2022-11-27T17:39:54.166Z,100282.94
2022-11-27T17:42:23.016Z,100278.50
2022-11-27T17:44:52.056Z,100269.34
2022-11-27T17:47:19.931Z,100268.28
2022-11-27T17:49:48.243Z,100253.69
2022-11-27T17:52:16.134Z,100271.75
2022-11-27T17:54:44.391Z,100266.28
2022-11-27T17:57:13.669Z,100278.50
2022-11-27T17:59:41.930Z,100288.63
2022-11-27T18:02:11.590Z,100281.69
2022-11-27T18:04:40.104Z,100250.84
2022-11-27T18:07:07.890Z,100281.50
2022-11-27T18:09:36.148Z,100283.53
2022-11-27T18:12:06.385Z,100295.75
2022-11-27T18:14:40.255Z,100296.34
2022-11-27T18:17:08.403Z,100255.13
2022-11-27T18:19:36.265Z,100292.28
2022-11-27T18:22:09.337Z,100269.94
2022-11-27T18:24:41.573Z,100239.88
2022-11-27T18:27:10.432Z,100275.66
2022-11-27T18:29:42.500Z,100276.88
2022-11-27T18:32:29.778Z,100266.69
2022-11-27T18:34:57.618Z,100257.94
2022-11-27T18:37:25.722Z,100250.22
2022-11-27T18:39:53.531Z,100251.66
2022-11-27T18:42:21.754Z,100252.25
2022-11-27T18:44:51.550Z,100229.31
2022-11-27T18:47:19.481Z,100254.50
2022-11-27T18:49:49.186Z,100249.59
2022-11-27T18:52:17.412Z,100229.28
2022-11-27T18:54:47.700Z,100254.06
2022-11-27T18:57:15.459Z,100238.41
2022-11-27T18:59:44.810Z,100219.94
2022-11-27T19:02:14.532Z,100198.00
2022-11-27T19:04:44.440Z,100204.91
2022-11-27T19:07:12.561Z,100215.84
2022-11-27T19:09:41.105Z,100209.31
2022-11-27T19:12:09.148Z,100191.88
2022-11-27T19:14:37.146Z,100189.63
2022-11-27T19:17:04.940Z,100184.94
2022-11-27T19:19:53.869Z,100169.13
2022-11-27T19:22:22.533Z,100180.25
2022-11-27T19:24:50.372Z,100199.16
2022-11-27T19:27:18.161Z,100201.59
2022-11-27T19:29:46.105Z,100195.28
2022-11-27T19:32:13.945Z,100162.59
2022-11-27T19:34:46.116Z,100175.59
2022-11-27T19:37:14.035Z,100194.88
2022-11-27T19:39:41.796Z,100190.78
2022-11-27T19:42:10.113Z,100194.84
2022-11-27T19:44:37.976Z,100174.31
2022-11-27T19:47:06.884Z,100174.50
2022-11-27T19:49:34.631Z,100159.25
2022-11-27T19:52:04.239Z,100162.28
2022-11-27T19:54:32.026Z,100161.66
2022-11-27T19:56:59.916Z,100136.28
2022-11-27T19:59:27.866Z,100163.06
2022-11-27T20:01:55.887Z,100146.44
2022-11-27T20:04:23.939Z,100137.47
2022-11-27T20:06:53.427Z,100148.00
2022-11-27T20:09:22.783Z,100142.94
2022-11-27T20:11:50.617Z,100152.88
2022-11-27T20:14:19.840Z,100093.22
2022-11-27T20:16:47.992Z,100138.44
2022-11-27T20:19:16.494Z,100145.75
2022-11-27T20:21:44.417Z,100142.91
2022-11-27T20:24:13.088Z,100146.94
2022-11-27T20:26:42.952Z,100135.56
2022-11-27T20:29:11.957Z,100125.38
2022-11-27T20:31:43.722Z,100146.91
2022-11-27T20:34:19.294Z,100147.75
2022-11-27T20:36:47.312Z,100142.81
2022-11-27T20:39:21.280Z,100142.41
2022-11-27T20:41:51.865Z,100126.34
2022-11-27T20:44:20.338Z,100128.78
2022-11-27T20:46:48.273Z,100128.56
2022-11-27T20:49:16.643Z,100116.00
2022-11-27T20:51:44.647Z,100095.88
2022-11-27T20:54:13.616Z,100085.94
2022-11-27T20:56:45.082Z,100114.03
2022-11-27T20:59:18.515Z,100106.72
2022-11-27T21:01:46.354Z,100067.34
2022-11-27T21:04:23.773Z,100107.06
2022-11-27T21:06:52.810Z,100096.28
2022-11-27T21:09:22.584Z,100090.78
2022-11-27T21:11:50.417Z,100090.56
2022-11-27T21:14:21.779Z,100087.91
2022-11-27T21:16:51.301Z,100079.16
2022-11-27T21:19:21.188Z,100079.53
2022-11-27T21:21:49.713Z,100072.41
2022-11-27T21:24:18.546Z,100044.03
2022-11-27T21:26:47.165Z,100064.69
2022-11-27T21:29:15.234Z,100074.25
2022-11-27T21:31:47.398Z,100065.28
2022-11-27T21:34:16.912Z,100075.06
2022-11-27T21:36:44.829Z,100067.91
2022-11-27T21:39:14.808Z,100065.13
2022-11-27T21:41:42.705Z,100058.63
2022-11-27T21:44:12.149Z,100074.25
2022-11-27T21:46:40.226Z,100060.44
2022-11-27T21:49:09.580Z,100019.09
2022-11-27T21:51:37.795Z,100062.03
2022-11-27T21:54:08.010Z,100065.03
2022-11-27T21:56:38.922Z,100048.25
2022-11-27T21:59:09.901Z,100058.53
2022-11-27T22:01:38.989Z,100031.19
2022-11-27T22:04:07.072Z,100038.47
2022-11-27T22:06:39.276Z,100043.72
2022-11-27T22:09:13.349Z,100048.97
2022-11-27T22:11:43.649Z,100045.28
2022-11-27T22:14:11.545Z,100040.25
2022-11-27T22:16:45.206Z,100057.50
2022-11-27T22:19:14.510Z,100039.84
2022-11-27T22:21:45.214Z,100041.19
2022-11-27T22:24:18.468Z,100046.91
2022-11-27T22:26:47.893Z,100037.19
2022-11-27T22:29:15.719Z,100058.69
2022-11-27T22:31:43.606Z,100043.84
2022-11-27T22:34:11.801Z,100051.78
2022-11-27T22:36:39.571Z,100030.59
2022-11-27T22:39:09.650Z,100025.34
2022-11-27T22:41:40.805Z,100037.28
2022-11-27T22:44:09.917Z,99992.75
2022-11-27T22:46:41.240Z,100040.72
2022-11-27T22:49:11.279Z,100039.50
2022-11-27T22:51:41.228Z,100034.22
2022-11-27T22:54:12.908Z,100007.66
2022-11-27T22:56:41.352Z,100025.50
2022-11-27T22:59:32.211Z,100021.19
2022-11-27T23:01:57.881Z,100019.53
2022-11-27T23:04:25.665Z,100001.75
2022-11-27T23:06:53.517Z,100005.41
2022-11-27T23:09:23.175Z,100026.50
2022-11-27T23:11:51.429Z,100029.34
2022-11-27T23:14:19.834Z,100005.41
2022-11-27T23:16:48.229Z,100013.09
2022-11-27T23:19:16.594Z,100022.13
2022-11-27T23:21:44.497Z,100034.69
2022-11-27T23:24:15.635Z,100034.28
2022-11-27T23:26:45.946Z,99992.13
2022-11-27T23:29:14.711Z,100034.94
2022-11-27T23:31:43.633Z,100035.34
2022-11-27T23:34:16.549Z,100040.00
2022-11-27T23:36:45.421Z,100040.41
2022-11-27T23:39:14.480Z,100003.16
2022-11-27T23:41:44.756Z,100040.41
2022-11-27T23:44:13.071Z,100040.22
2022-11-27T23:46:40.928Z,100024.53
2022-11-27T23:49:09.524Z,100018.91
2022-11-27T23:51:37.818Z,100033.50
2022-11-27T23:54:09.591Z,100014.41
2022-11-27T23:56:39.223Z,100009.25
2022-11-27T23:59:09.419Z,100009.25
